CPX106 Details

Departure: Seattle-Tacoma International Airport (KSEA)
Arrival: Ted Stevens Anchorage International Airport (PANC) at N/A
Route: BANGR9 ARRIE FOCHE PRYCE BKA LAIRE JOH WITTI4
Notes:


Current Weather Information
KSEA 231403Z 03006KT 1/2SM R16L/3500VP6000FT FG OVC001 08/06 A3049 RMK AO2 TWR VIS 10 T00830061 $
PANC 231353Z 31005KT 10SM SCT050 OVC060 04/01 A2928 RMK AO2 SLP917 T00390011